Hs Rossini — 9HA2934 — position and weather

sailwx.info

Track history (hours):
 
Tides and Currents Weather Stations Pressure Air Temp Water Temp Dewpoint Dewpoint Depression Visibility Wind Speed Wind Dir Waves Ship Positions

Hs Rossini

Last reported at 2018-Jan-08 12:18 UTC. Time now 2018-Jan-19 13:33 UTC.
Position S 30°24' E 030°49'.
Warning: this ship's position is 11 days out of date.

Length 228 m; draft 11.9 m.

Type: Ship (hazmat cat A). MMSI: 256816000.

Date/timePositionNaut miles runAvg speedWind from/ knotsBaromVisibWave heightAir tempDewpointWater temp
2018-Jan-08 12:18S 30°24' E 030°49'3 9.8
2018-Jan-08 11:59S 30°22' E 030°50'510.2
2018-Jan-08 11:30S 30°17' E 030°53'510.7
2018-Jan-08 11:00S 30°12' E 030°55'510.7
2018-Jan-08 10:30S 30°08' E 030°58'611.1
2018-Jan-08 10:00S 30°03' E 031°01'611.1
2018-Jan-08 09:30S 29°58' E 031°04'611.1
2018-Jan-08 09:00S 29°53' E 031°06'2 4.6
2018-Jan-08 08:30S 29°52' E 031°03'2 3.2
2018-Jan-08 08:00S 29°53' E 031°02'0 0.7
2018-Jan-08 07:28S 29°53' E 031°02'0 0.0
2018-Jan-08 06:58S 29°53' E 031°01'0 0.0
2018-Jan-08 06:25S 29°53' E 031°02'0 0.0
2018-Jan-08 05:58S 29°53' E 031°02'0 0.0
2018-Jan-08 05:25S 29°53' E 031°02'0 0.0
2018-Jan-08 04:58S 29°53' E 031°01'0 0.0
2018-Jan-08 04:25S 29°53' E 031°01'0 0.0
2018-Jan-08 03:55S 29°53' E 031°01'0 0.0
2018-Jan-08 03:25S 29°53' E 031°01'0 0.0
2018-Jan-08 02:55S 29°53' E 031°02'0 0.0
2018-Jan-08 02:19S 29°53' E 031°02'0 0.0
2018-Jan-08 01:58S 29°53' E 031°02'0 0.0
2018-Jan-08 01:25S 29°53' E 031°02'0 0.0
2018-Jan-08 00:58S 29°53' E 031°02'0 0.0
2018-Jan-08 00:25S 29°53' E 031°02'0 0.0
2018-Jan-07 23:58S 29°53' E 031°02'0 0.0
2018-Jan-07 23:25S 29°53' E 031°02'0 0.0
2018-Jan-07 22:55S 29°53' E 031°02'0 0.0
2018-Jan-07 22:28S 29°53' E 031°02'0 0.0
2018-Jan-07 21:58S 29°53' E 031°01'0 0.0
2018-Jan-07 21:28S 29°53' E 031°02'0 0.0
2018-Jan-07 20:58S 29°53' E 031°02'0 0.0
2018-Jan-07 20:28S 29°53' E 031°02'0 0.0
2018-Jan-07 19:58S 29°53' E 031°02'0 0.0
2018-Jan-07 19:28S 29°53' E 031°02'0 0.0
2018-Jan-07 18:58S 29°53' E 031°02'0 0.0
2018-Jan-07 18:28S 29°53' E 031°02'0 0.0
2018-Jan-07 17:58S 29°53' E 031°02'0 0.0
2018-Jan-07 17:28S 29°53' E 031°02'0 0.0
2018-Jan-07 16:58S 29°53' E 031°02'0 0.0
2018-Jan-07 16:28S 29°53' E 031°02'0 0.0
2018-Jan-07 15:58S 29°53' E 031°02'0 0.0
2018-Jan-07 15:28S 29°53' E 031°02'0 0.0
2018-Jan-07 14:55S 29°53' E 031°02'0 0.0
2018-Jan-07 14:28S 29°53' E 031°02'0 0.0
2018-Jan-07 13:52S 29°53' E 031°02'0 0.0
2018-Jan-07 13:28S 29°53' E 031°02'0 0.0
2018-Jan-07 12:58S 29°53' E 031°02'0 0.0
2018-Jan-07 12:28S 29°53' E 031°01'0 0.0
2018-Jan-07 11:58S 29°53' E 031°02'0 0.0
2018-Jan-07 11:25S 29°53' E 031°02'0 0.0
2018-Jan-07 10:58S 29°53' E 031°02'0 0.0
2018-Jan-07 10:28S 29°53' E 031°02'0 0.0
2018-Jan-07 09:58S 29°53' E 031°02'0 0.0
2018-Jan-07 09:28S 29°53' E 031°02'0 0.0
2018-Jan-07 08:58S 29°53' E 031°02'0 0.0
2018-Jan-07 08:25S 29°53' E 031°02'0 0.0
2018-Jan-07 07:55S 29°53' E 031°02'0 0.0
2018-Jan-07 07:25S 29°53' E 031°02'0 0.0
2018-Jan-07 06:52S 29°53' E 031°02'0 0.0
2018-Jan-07 06:25S 29°53' E 031°02'0 0.0
2018-Jan-07 05:55S 29°53' E 031°02'0 0.0
2018-Jan-07 05:28S 29°53' E 031°02'0 0.0
2018-Jan-07 04:58S 29°53' E 031°02'0 0.0
2018-Jan-07 04:25S 29°53' E 031°02'0 0.0
2018-Jan-07 03:55S 29°53' E 031°02'0 0.0
2018-Jan-07 03:28S 29°53' E 031°02'0 0.0
2018-Jan-07 02:55S 29°53' E 031°02'0 0.0
2018-Jan-07 02:19S 29°53' E 031°02'0 0.0
2018-Jan-07 01:58S 29°53' E 031°02'0 0.0
2018-Jan-07 01:28S 29°53' E 031°02'0 0.0
2018-Jan-07 00:25S 29°53' E 031°02'0 0.0
2018-Jan-06 23:52S 29°53' E 031°02'0 0.0
2018-Jan-06 23:28S 29°53' E 031°02'0 0.0
2018-Jan-06 22:58S 29°53' E 031°02'1 1.7
2018-Jan-06 22:30S 29°52' E 031°02'4 7.9
2018-Jan-06 22:00S 29°50' E 031°06'4 8.7
2018-Jan-06 21:30S 29°51' E 031°11'612.6
2018-Jan-06 21:00S 29°55' E 031°17'510.2
2018-Jan-06 20:30S 29°57' E 031°22'0 0.5
2018-Jan-06 20:00S 29°57' E 031°23'0 0.7
2018-Jan-06 19:30S 29°57' E 031°23'0 0.4
2018-Jan-06 19:00S 29°57' E 031°23'0 0.2
2018-Jan-06 18:30S 29°57' E 031°23'0 0.5
2018-Jan-06 18:00S 29°57' E 031°23'0 0.6
2018-Jan-06 17:30S 29°56' E 031°23'0 0.8
2018-Jan-06 17:00S 29°56' E 031°23'0 0.7
2018-Jan-06 16:30S 29°56' E 031°23'0 0.7
2018-Jan-06 16:00S 29°55' E 031°23'0 0.6
2018-Jan-06 15:30S 29°55' E 031°23'1 2.9
2018-Jan-06 15:00S 29°54' E 031°22'2 4.3
2018-Jan-06 14:30S 29°54' E 031°19'2 4.4
2018-Jan-06 14:00S 29°54' E 031°17'0 0.6
2018-Jan-06 13:30S 29°54' E 031°17'1 1.2
2018-Jan-06 13:00S 29°54' E 031°17'1 1.3
2018-Jan-06 12:30S 29°54' E 031°18'1 1.2
2018-Jan-06 12:00S 29°54' E 031°19'1 1.2
2018-Jan-06 11:30S 29°55' E 031°19'1 1.3
2018-Jan-06 11:00S 29°55' E 031°20'0 1.0
2018-Jan-06 10:30S 29°55' E 031°20'0 0.8
2018-Jan-06 10:00S 29°55' E 031°20'4 8.3
2018-Jan-06 09:30S 29°54' E 031°15'4 7.5
2018-Jan-06 09:00S 29°53' E 031°11'3 5.5
2018-Jan-06 08:30S 29°56' E 031°09'3 5.5
2018-Jan-06 08:00S 29°58' E 031°08'3 5.8
2018-Jan-06 07:30S 30°00' E 031°06'4 8.2
2018-Jan-06 07:00S 30°04' E 031°03'5 9.2
2018-Jan-06 06:30S 30°07' E 030°60'5 9.4
2018-Jan-06 06:00S 30°11' E 030°57'510.3
2018-Jan-06 05:30S 30°16' E 030°54'510.3
2018-Jan-06 05:00S 30°20' E 030°51'510.3
2018-Jan-06 04:30S 30°25' E 030°49'  
Track history (hours):
 
Tides and Currents Weather Stations Pressure Air Temp Water Temp Dewpoint Dewpoint Depression Visibility Wind Speed Wind Dir Waves Ship Positions

Hs Rossini

Last reported at 2018-Jan-08 12:18 UTC. Time now 2018-Jan-19 13:33 UTC.
Position S 30°24' E 030°49'.
Warning: this ship's position is 11 days out of date.

Length 228 m; draft 11.9 m.

Type: Ship (hazmat cat A). MMSI: 256816000.

Date/timePositionNaut miles runAvg speedWind from/ knotsBaromVisibWave heightAir tempDewpointWater temp
2018-Jan-08 12:18S 30°24' E 030°49'3 9.8
2018-Jan-08 11:59S 30°22' E 030°50'510.2
2018-Jan-08 11:30S 30°17' E 030°53'510.7
2018-Jan-08 11:00S 30°12' E 030°55'510.7
2018-Jan-08 10:30S 30°08' E 030°58'611.1
2018-Jan-08 10:00S 30°03' E 031°01'611.1
2018-Jan-08 09:30S 29°58' E 031°04'611.1
2018-Jan-08 09:00S 29°53' E 031°06'2 4.6
2018-Jan-08 08:30S 29°52' E 031°03'2 3.2
2018-Jan-08 08:00S 29°53' E 031°02'0 0.7
2018-Jan-08 07:28S 29°53' E 031°02'0 0.0
2018-Jan-08 06:58S 29°53' E 031°01'0 0.0
2018-Jan-08 06:25S 29°53' E 031°02'0 0.0
2018-Jan-08 05:58S 29°53' E 031°02'0 0.0
2018-Jan-08 05:25S 29°53' E 031°02'0 0.0
2018-Jan-08 04:58S 29°53' E 031°01'0 0.0
2018-Jan-08 04:25S 29°53' E 031°01'0 0.0
2018-Jan-08 03:55S 29°53' E 031°01'0 0.0
2018-Jan-08 03:25S 29°53' E 031°01'0 0.0
2018-Jan-08 02:55S 29°53' E 031°02'0 0.0
2018-Jan-08 02:19S 29°53' E 031°02'0 0.0
2018-Jan-08 01:58S 29°53' E 031°02'0 0.0
2018-Jan-08 01:25S 29°53' E 031°02'0 0.0
2018-Jan-08 00:58S 29°53' E 031°02'0 0.0
2018-Jan-08 00:25S 29°53' E 031°02'0 0.0
2018-Jan-07 23:58S 29°53' E 031°02'0 0.0
2018-Jan-07 23:25S 29°53' E 031°02'0 0.0
2018-Jan-07 22:55S 29°53' E 031°02'0 0.0
2018-Jan-07 22:28S 29°53' E 031°02'0 0.0
2018-Jan-07 21:58S 29°53' E 031°01'0 0.0
2018-Jan-07 21:28S 29°53' E 031°02'0 0.0
2018-Jan-07 20:58S 29°53' E 031°02'0 0.0
2018-Jan-07 20:28S 29°53' E 031°02'0 0.0
2018-Jan-07 19:58S 29°53' E 031°02'0 0.0
2018-Jan-07 19:28S 29°53' E 031°02'0 0.0
2018-Jan-07 18:58S 29°53' E 031°02'0 0.0
2018-Jan-07 18:28S 29°53' E 031°02'0 0.0
2018-Jan-07 17:58S 29°53' E 031°02'0 0.0
2018-Jan-07 17:28S 29°53' E 031°02'0 0.0
2018-Jan-07 16:58S 29°53' E 031°02'0 0.0
2018-Jan-07 16:28S 29°53' E 031°02'0 0.0
2018-Jan-07 15:58S 29°53' E 031°02'0 0.0
2018-Jan-07 15:28S 29°53' E 031°02'0 0.0
2018-Jan-07 14:55S 29°53' E 031°02'0 0.0
2018-Jan-07 14:28S 29°53' E 031°02'0 0.0
2018-Jan-07 13:52S 29°53' E 031°02'0 0.0
2018-Jan-07 13:28S 29°53' E 031°02'0 0.0
2018-Jan-07 12:58S 29°53' E 031°02'0 0.0
2018-Jan-07 12:28S 29°53' E 031°01'0 0.0
2018-Jan-07 11:58S 29°53' E 031°02'0 0.0
2018-Jan-07 11:25S 29°53' E 031°02'0 0.0
2018-Jan-07 10:58S 29°53' E 031°02'0 0.0
2018-Jan-07 10:28S 29°53' E 031°02'0 0.0
2018-Jan-07 09:58S 29°53' E 031°02'0 0.0
2018-Jan-07 09:28S 29°53' E 031°02'0 0.0
2018-Jan-07 08:58S 29°53' E 031°02'0 0.0
2018-Jan-07 08:25S 29°53' E 031°02'0 0.0
2018-Jan-07 07:55S 29°53' E 031°02'0 0.0
2018-Jan-07 07:25S 29°53' E 031°02'0 0.0
2018-Jan-07 06:52S 29°53' E 031°02'0 0.0
2018-Jan-07 06:25S 29°53' E 031°02'0 0.0
2018-Jan-07 05:55S 29°53' E 031°02'0 0.0
2018-Jan-07 05:28S 29°53' E 031°02'0 0.0
2018-Jan-07 04:58S 29°53' E 031°02'0 0.0
2018-Jan-07 04:25S 29°53' E 031°02'0 0.0
2018-Jan-07 03:55S 29°53' E 031°02'0 0.0
2018-Jan-07 03:28S 29°53' E 031°02'0 0.0
2018-Jan-07 02:55S 29°53' E 031°02'0 0.0
2018-Jan-07 02:19S 29°53' E 031°02'0 0.0
2018-Jan-07 01:58S 29°53' E 031°02'0 0.0
2018-Jan-07 01:28S 29°53' E 031°02'0 0.0
2018-Jan-07 00:25S 29°53' E 031°02'0 0.0
2018-Jan-06 23:52S 29°53' E 031°02'0 0.0
2018-Jan-06 23:28S 29°53' E 031°02'0 0.0
2018-Jan-06 22:58S 29°53' E 031°02'1 1.7
2018-Jan-06 22:30S 29°52' E 031°02'4 7.9
2018-Jan-06 22:00S 29°50' E 031°06'4 8.7
2018-Jan-06 21:30S 29°51' E 031°11'612.6
2018-Jan-06 21:00S 29°55' E 031°17'510.2
2018-Jan-06 20:30S 29°57' E 031°22'0 0.5
2018-Jan-06 20:00S 29°57' E 031°23'0 0.7
2018-Jan-06 19:30S 29°57' E 031°23'0 0.4
2018-Jan-06 19:00S 29°57' E 031°23'0 0.2
2018-Jan-06 18:30S 29°57' E 031°23'0 0.5
2018-Jan-06 18:00S 29°57' E 031°23'0 0.6
2018-Jan-06 17:30S 29°56' E 031°23'0 0.8
2018-Jan-06 17:00S 29°56' E 031°23'0 0.7
2018-Jan-06 16:30S 29°56' E 031°23'0 0.7
2018-Jan-06 16:00S 29°55' E 031°23'0 0.6
2018-Jan-06 15:30S 29°55' E 031°23'1 2.9
2018-Jan-06 15:00S 29°54' E 031°22'2 4.3
2018-Jan-06 14:30S 29°54' E 031°19'2 4.4
2018-Jan-06 14:00S 29°54' E 031°17'0 0.6
2018-Jan-06 13:30S 29°54' E 031°17'1 1.2
2018-Jan-06 13:00S 29°54' E 031°17'1 1.3
2018-Jan-06 12:30S 29°54' E 031°18'1 1.2
2018-Jan-06 12:00S 29°54' E 031°19'1 1.2
2018-Jan-06 11:30S 29°55' E 031°19'1 1.3
2018-Jan-06 11:00S 29°55' E 031°20'0 1.0
2018-Jan-06 10:30S 29°55' E 031°20'0 0.8
2018-Jan-06 10:00S 29°55' E 031°20'4 8.3
2018-Jan-06 09:30S 29°54' E 031°15'4 7.5
2018-Jan-06 09:00S 29°53' E 031°11'3 5.5
2018-Jan-06 08:30S 29°56' E 031°09'3 5.5
2018-Jan-06 08:00S 29°58' E 031°08'3 5.8
2018-Jan-06 07:30S 30°00' E 031°06'4 8.2
2018-Jan-06 07:00S 30°04' E 031°03'5 9.2
2018-Jan-06 06:30S 30°07' E 030°60'5 9.4
2018-Jan-06 06:00S 30°11' E 030°57'510.3
2018-Jan-06 05:30S 30°16' E 030°54'510.3
2018-Jan-06 05:00S 30°20' E 030°51'510.3
2018-Jan-06 04:30S 30°25' E 030°49'  

Dump ship's entire track history